createdAt,value
2018-11-13T00:04:33.918Z,76.9
2018-11-13T00:09:36.380Z,77.5
2018-11-13T00:14:38.795Z,78.4
2018-11-13T00:19:41.238Z,78.4
2018-11-13T00:24:43.749Z,79.5
2018-11-13T00:29:46.120Z,80.4
2018-11-13T00:34:48.563Z,80.3
2018-11-13T00:39:51.049Z,80.3
2018-11-13T00:44:53.438Z,80.3
2018-11-13T00:49:55.872Z,80.1
2018-11-13T00:54:58.603Z,80.7
2018-11-13T01:00:00.765Z,81
2018-11-13T01:05:03.311Z,81.2
2018-11-13T01:10:05.726Z,81.7
2018-11-13T01:15:08.665Z,81.5
2018-11-13T01:20:10.542Z,82.1
2018-11-13T01:25:12.964Z,82.1
2018-11-13T01:30:15.392Z,82.3
2018-11-13T01:35:17.885Z,81.9
2018-11-13T01:40:20.282Z,82.2
2018-11-13T01:45:22.799Z,82.5
2018-11-13T01:50:25.177Z,82.6
2018-11-13T01:55:27.592Z,82.2
2018-11-13T02:00:30.041Z,81.9
2018-11-13T02:05:32.489Z,81.9
2018-11-13T02:10:34.919Z,81.8
2018-11-13T02:15:37.397Z,81.9
2018-11-13T02:20:39.888Z,81.9
2018-11-13T02:25:42.282Z,81.8
2018-11-13T02:30:44.683Z,81.3
2018-11-13T02:35:47.119Z,80.9
2018-11-13T02:40:49.564Z,80.4
2018-11-13T02:45:51.997Z,80.1
2018-11-13T02:50:54.442Z,79.8
2018-11-13T02:55:56.875Z,79.6
2018-11-13T03:00:59.338Z,79.5
2018-11-13T03:06:01.761Z,79.5
2018-11-13T03:11:04.202Z,79.6
2018-11-13T03:16:06.638Z,79.6
2018-11-13T03:21:09.114Z,79.8
2018-11-13T03:26:11.557Z,79.7
2018-11-13T03:31:14.115Z,79.7
2018-11-13T03:36:16.475Z,80.1
2018-11-13T03:41:18.832Z,80.4
2018-11-13T03:46:21.296Z,80.6
2018-11-13T03:51:23.732Z,80.8
2018-11-13T03:56:26.151Z,81
2018-11-13T04:01:28.611Z,81.1
2018-11-13T04:06:31.038Z,80.7
2018-11-13T04:11:33.489Z,80.5
2018-11-13T04:16:35.950Z,80.4
2018-11-13T04:21:38.365Z,80.7
2018-11-13T04:26:40.808Z,81.5
2018-11-13T04:31:43.285Z,82
2018-11-13T04:36:45.685Z,81.9
2018-11-13T04:41:48.132Z,82
2018-11-13T04:46:50.553Z,82.3
2018-11-13T04:51:53.010Z,82.4
2018-11-13T04:56:55.429Z,82.3
2018-11-13T05:01:58.062Z,82.1
2018-11-13T05:07:00.356Z,82.1
2018-11-13T05:12:02.785Z,82.6
2018-11-13T05:17:05.263Z,83.3
2018-11-13T05:22:07.644Z,81.3
2018-11-13T05:27:10.142Z,82.5
2018-11-13T05:32:12.668Z,82.8
2018-11-13T05:37:14.977Z,82
2018-11-13T05:42:17.406Z,81.4
2018-11-13T05:47:19.928Z,81.5
2018-11-13T05:52:22.299Z,82.6
2018-11-13T05:57:24.728Z,83.7
2018-11-13T06:02:27.233Z,84.5
2018-11-13T06:07:29.701Z,85.2
2018-11-13T06:12:32.048Z,83.2
2018-11-13T06:17:34.489Z,82.5
2018-11-13T06:22:37.084Z,82.2
2018-11-13T06:27:39.380Z,81.9
2018-11-13T06:32:41.818Z,81.9
2018-11-13T06:37:44.326Z,81.8
2018-11-13T06:42:46.686Z,81.6
2018-11-13T06:47:49.150Z,81.6
2018-11-13T06:52:51.581Z,81.7
2018-11-13T06:57:54.035Z,81.7
2018-11-13T07:02:56.446Z,81.7
2018-11-13T07:07:58.890Z,81.9
2018-11-13T07:13:01.585Z,82.4
2018-11-13T07:18:03.775Z,84.4
2018-11-13T07:23:06.194Z,84.6
2018-11-13T07:28:08.688Z,88.8
2018-11-13T07:33:11.117Z,89.7
2018-11-13T07:38:13.522Z,88.6
2018-11-13T07:43:15.961Z,87.6
2018-11-13T07:48:18.409Z,87.7
2018-11-13T07:53:20.871Z,89.1
2018-11-13T07:58:23.300Z,88.6
2018-11-13T08:03:25.903Z,89.2
2018-11-13T08:08:28.175Z,89.8
2018-11-13T08:13:30.723Z,89.5
2018-11-13T08:18:33.134Z,89.9
2018-11-13T08:23:35.488Z,90.8
2018-11-13T08:28:37.980Z,91.2
2018-11-13T08:33:40.389Z,91.6
2018-11-13T08:38:42.823Z,92.2
2018-11-13T08:43:45.302Z,93
2018-11-13T08:48:47.704Z,93.8
2018-11-13T08:53:50.139Z,93.7
2018-11-13T08:58:52.872Z,94.6
2018-11-13T09:03:55.011Z,94.3
2018-11-13T09:08:57.471Z,94.3
2018-11-13T09:13:59.899Z,94.4
2018-11-13T09:19:02.488Z,94.6
2018-11-13T09:24:04.784Z,94.4
2018-11-13T09:29:07.214Z,94.5
2018-11-13T09:34:09.670Z,94.5
2018-11-13T09:39:12.213Z,94.3
2018-11-13T09:44:14.540Z,94.5
2018-11-13T09:49:16.980Z,94.9
2018-11-13T09:54:19.458Z,94.9
2018-11-13T09:59:22.026Z,95.2
2018-11-13T10:04:24.937Z,95.2
2018-11-13T10:09:26.745Z,95.3
2018-11-13T10:14:29.200Z,95.9
2018-11-13T10:19:31.604Z,95.5
2018-11-13T10:24:34.059Z,95.5
2018-11-13T10:29:36.518Z,95.4
2018-11-13T10:34:38.936Z,95.3
2018-11-13T10:39:41.381Z,95.2
2018-11-13T10:44:43.808Z,95.3
2018-11-13T10:49:46.262Z,95.3
2018-11-13T10:54:48.705Z,95.3
2018-11-13T10:59:51.129Z,95.3
2018-11-13T11:04:53.583Z,95.2
2018-11-13T11:09:56.039Z,95.3
2018-11-13T11:14:58.479Z,95.3
2018-11-13T11:20:00.936Z,95.4
2018-11-13T11:25:03.363Z,95.4
2018-11-13T11:30:05.783Z,95.5
2018-11-13T11:45:13.117Z,95.3
2018-11-13T11:50:15.553Z,95.5
2018-11-13T11:55:17.972Z,95.8
2018-11-13T12:00:20.514Z,95.9
2018-11-13T12:05:22.878Z,95.6
2018-11-13T12:10:25.306Z,94.8
2018-11-13T12:15:27.769Z,94.5
2018-11-13T12:20:30.180Z,94.7
2018-11-13T12:25:32.689Z,94.8
2018-11-13T12:30:35.098Z,94.6
2018-11-13T12:35:37.524Z,94.6
2018-11-13T12:40:41.625Z,94.6
2018-11-13T12:45:47.384Z,94.5
2018-11-13T12:50:44.834Z,94.3
2018-11-13T12:55:47.331Z,94
2018-11-13T13:00:49.704Z,93.7
2018-11-13T13:05:52.135Z,93.6
2018-11-13T13:10:54.587Z,93.6
2018-11-13T13:15:57.038Z,93.7
2018-11-13T13:20:59.513Z,94.3
2018-11-13T13:26:01.912Z,94.5
2018-11-13T13:31:04.359Z,94.8
2018-11-13T13:36:06.806Z,94.9
2018-11-13T13:41:09.229Z,94.8
2018-11-13T13:46:11.724Z,95.5
2018-11-13T13:51:14.159Z,95.5
2018-11-13T13:56:16.550Z,95.7
2018-11-13T14:01:18.990Z,95.7
2018-11-13T14:06:21.424Z,95.2
2018-11-13T14:11:23.948Z,95.1
2018-11-13T14:16:26.306Z,94.6
2018-11-13T14:21:28.754Z,94.5
2018-11-13T14:26:31.217Z,94.1
2018-11-13T14:31:33.662Z,93.6
2018-11-13T14:36:36.070Z,93.2
2018-11-13T14:41:38.520Z,92.5
2018-11-13T14:46:41.106Z,92.4
2018-11-13T14:51:43.420Z,92.6
2018-11-13T14:56:45.829Z,92.2
2018-11-13T15:01:48.277Z,91.6
2018-11-13T15:06:50.709Z,92.1
2018-11-13T15:11:53.160Z,92.2
2018-11-13T15:16:55.590Z,92.1
2018-11-13T15:21:58.075Z,92
2018-11-13T15:27:00.458Z,92
2018-11-13T15:32:02.919Z,92.1
2018-11-13T15:37:05.348Z,92.2
2018-11-13T15:42:07.806Z,92.2
2018-11-13T15:47:10.225Z,92.1
2018-11-13T15:52:12.880Z,92.1
2018-11-13T15:57:15.114Z,92
2018-11-13T16:02:17.546Z,91.8
2018-11-13T16:07:19.998Z,91.7
2018-11-13T16:12:22.428Z,91.5
2018-11-13T16:17:24.883Z,91.5
2018-11-13T16:22:27.346Z,91.3
2018-11-13T16:27:29.771Z,91.2
2018-11-13T16:32:32.203Z,91.1
2018-11-13T16:37:34.620Z,91
2018-11-13T16:42:37.055Z,91
2018-11-13T16:47:39.522Z,90.9
2018-11-13T16:52:41.951Z,90.9
2018-11-13T16:57:44.389Z,91
2018-11-13T17:02:46.847Z,90.9
2018-11-13T17:07:49.262Z,90.9
2018-11-13T17:12:51.743Z,91
2018-11-13T17:17:54.161Z,91.1
2018-11-13T17:22:56.588Z,91.1
2018-11-13T17:27:59.061Z,91.1
2018-11-13T17:33:01.478Z,91
2018-11-13T17:38:04.169Z,91
2018-11-13T17:43:06.352Z,91
2018-11-13T17:48:08.800Z,91
2018-11-13T17:53:11.247Z,91
2018-11-13T17:58:13.670Z,90.9
2018-11-13T18:03:16.294Z,90.9
2018-11-13T18:08:18.578Z,91
2018-11-13T18:13:20.996Z,90.9
2018-11-13T18:18:23.454Z,90.9
2018-11-13T18:23:25.974Z,91.1
2018-11-13T18:28:28.649Z,91.1
2018-11-13T18:33:30.780Z,91.1
2018-11-13T18:38:33.331Z,91
2018-11-13T18:43:35.644Z,90.9
2018-11-13T18:48:38.080Z,90.9
2018-11-13T18:53:40.601Z,90.8
2018-11-13T18:58:42.971Z,90.8
2018-11-13T19:03:45.412Z,90.7
2018-11-13T19:08:47.834Z,90.6
2018-11-13T19:13:50.283Z,90.5
2018-11-13T19:18:52.935Z,90.4
2018-11-13T19:23:55.219Z,90.2
2018-11-13T19:28:57.604Z,89.4
2018-11-13T19:34:00.048Z,89
2018-11-13T19:39:02.498Z,89
2018-11-13T19:44:04.943Z,89.4
2018-11-13T19:49:07.388Z,89.8
2018-11-13T19:54:09.822Z,90.1
2018-11-13T19:59:12.287Z,90.2
2018-11-13T20:04:14.917Z,90.3
2018-11-13T20:09:17.162Z,90.4
2018-11-13T20:14:19.637Z,90.3
2018-11-13T20:19:22.059Z,90.3
2018-11-13T20:24:24.559Z,90.2
2018-11-13T20:29:27.128Z,90.2
2018-11-13T20:34:29.377Z,90.1
2018-11-13T20:39:31.827Z,90.1
2018-11-13T20:44:34.289Z,90
2018-11-13T20:49:36.738Z,89.9
2018-11-13T20:54:39.301Z,89.8
2018-11-13T20:59:41.609Z,89.8
2018-11-13T21:04:44.026Z,90
2018-11-13T21:09:46.482Z,90.2
2018-11-13T21:14:48.901Z,90.4
2018-11-13T21:19:51.338Z,90.4
2018-11-13T21:24:53.822Z,90.5
2018-11-13T21:29:56.296Z,90.5
2018-11-13T21:34:58.653Z,90.5
2018-11-13T21:40:01.095Z,90.6
2018-11-13T21:45:03.529Z,90.5
2018-11-13T21:50:06.192Z,90.6
2018-11-13T21:55:08.454Z,90.6
2018-11-13T22:00:10.862Z,90.7
2018-11-13T22:05:13.415Z,90.7
2018-11-13T22:10:15.770Z,90.6
2018-11-13T22:15:18.195Z,90.6
2018-11-13T22:20:20.678Z,90.6
2018-11-13T22:25:23.151Z,90.6
2018-11-13T22:30:25.515Z,90.5
2018-11-13T22:35:27.957Z,90.4
2018-11-13T22:40:30.398Z,90.3
2018-11-13T22:45:32.851Z,90.3
2018-11-13T22:50:35.268Z,90.2
2018-11-13T22:55:37.707Z,90.2
2018-11-13T23:00:40.140Z,90.1
2018-11-13T23:05:42.698Z,90.2
2018-11-13T23:10:45.053Z,90.2
2018-11-13T23:15:47.462Z,90.2
2018-11-13T23:20:49.907Z,90.2
2018-11-13T23:25:52.422Z,90.2
2018-11-13T23:30:54.785Z,90.2
2018-11-13T23:35:57.353Z,90.2
2018-11-13T23:40:59.655Z,90
2018-11-13T23:46:02.089Z,90
2018-11-13T23:51:04.575Z,90.1
2018-11-13T23:56:06.971Z,90.1
